Time;durP1;ratioP1;P1;durP2;ratioP2;P2;SDS_P1;SDS_P2;PMS_P1;PMS_P2;Temp;Humidity;BMP_temperature;BMP_pressure;BME280_temperature;BME280_humidity;BME280_pressure;Samples;Min_cycle;Max_cycle;Signal;HPM_P1;HPM_P2
2023/01/26 04:50:17;;;;;;;39.93;36.20;;;;;;;0.88;100.00;102196.66;4990460;28;20537;-44
2023/01/26 04:52:45;;;;;;;40.70;37.30;;;;;;;0.91;100.00;102191.19;4967498;28;20462;-51
2023/01/26 04:55:13;;;;;;;38.33;35.30;;;;;;;0.92;100.00;102198.13;4989908;28;20430;-45
2023/01/26 04:57:40;;;;;;;40.77;37.30;;;;;;;0.90;100.00;102190.34;4989827;28;20454;-46
2023/01/26 05:00:10;;;;;;;41.90;37.83;;;;;;;0.89;100.00;102190.47;4991085;28;20927;-48
2023/01/26 05:02:39;;;;;;;41.70;38.10;;;;;;;0.88;100.00;102178.25;4967715;28;20469;-46
2023/01/26 05:05:08;;;;;;;44.03;39.80;;;;;;;0.91;100.00;102175.44;4989641;28;21025;-47
2023/01/26 05:07:37;;;;;;;40.70;37.17;;;;;;;0.91;100.00;102178.91;4990281;28;20454;-46
2023/01/26 05:10:05;;;;;;;41.53;38.03;;;;;;;0.90;100.00;102176.38;4990106;28;20481;-46
2023/01/26 05:12:33;;;;;;;40.60;37.00;;;;;;;0.92;100.00;102183.22;4980329;28;20470;-45
2023/01/26 05:15:00;;;;;;;42.07;38.57;;;;;;;0.91;100.00;102188.56;4990224;28;20457;-47
2023/01/26 05:17:28;;;;;;;41.77;38.33;;;;;;;0.95;100.00;102193.53;4990193;28;20462;-45
2023/01/26 05:19:56;;;;;;;40.20;36.93;;;;;;;0.99;100.00;102194.16;4989671;28;20429;-45
2023/01/26 05:22:23;;;;;;;42.57;38.97;;;;;;;1.01;100.00;102190.50;4966879;28;20464;-44
2023/01/26 05:24:52;;;;;;;42.30;38.77;;;;;;;1.03;100.00;102193.88;4989754;28;20524;-48
2023/01/26 05:27:23;;;;;;;39.77;36.77;;;;;;;1.05;100.00;102191.97;4989861;28;20457;-45
2023/01/26 05:29:52;;;;;;;43.53;39.67;;;;;;;1.08;100.00;102191.78;4990407;28;20517;-45
2023/01/26 05:32:21;;;;;;;42.27;38.87;;;;;;;1.11;100.00;102182.84;4977083;28;20855;-47
2023/01/26 05:34:48;;;;;;;44.27;39.80;;;;;;;1.10;100.00;102192.53;4989389;28;20426;-46
2023/01/26 05:37:16;;;;;;;40.03;36.63;;;;;;;1.12;100.00;102192.44;4989891;28;20458;-48
2023/01/26 05:39:43;;;;;;;40.40;37.20;;;;;;;1.11;100.00;102190.72;4989743;28;20431;-49
2023/01/26 05:42:13;;;;;;;42.70;38.70;;;;;;;1.13;100.00;102191.50;4967411;28;20819;-50
2023/01/26 05:44:41;;;;;;;40.23;36.33;;;;;;;1.15;100.00;102191.38;4989324;28;20484;-49
2023/01/26 05:47:08;;;;;;;42.87;38.67;;;;;;;1.15;100.00;102191.38;4989398;28;20449;-45
2023/01/26 05:49:37;;;;;;;41.10;37.73;;;;;;;1.17;100.00;102200.00;4990042;28;20484;-48
2023/01/26 05:52:08;;;;;;;37.17;34.27;;;;;;;1.19;100.00;102193.72;4965870;28;20430;-44
2023/01/26 05:54:36;;;;;;;40.03;36.70;;;;;;;1.20;100.00;102186.66;4989541;28;20441;-48
2023/01/26 05:57:03;;;;;;;40.23;36.83;;;;;;;1.21;100.00;102198.84;4989758;28;20460;-47
2023/01/26 05:59:32;;;;;;;39.83;36.73;;;;;;;1.23;100.00;102189.06;4990079;28;20456;-47
2023/01/26 06:02:00;;;;;;;40.83;37.17;;;;;;;1.24;100.00;102201.28;4989445;28;20445;-50
2023/01/26 06:04:28;;;;;;;41.47;37.63;;;;;;;1.24;100.00;102196.88;4968279;28;20540;-44
2023/01/26 06:06:58;;;;;;;51.40;40.87;;;;;;;1.21;100.00;102201.50;4992838;28;20449;-49
2023/01/26 06:09:26;;;;;;;42.53;38.33;;;;;;;1.23;100.00;102199.59;4993850;28;20452;-47
2023/01/26 06:11:54;;;;;;;44.90;39.93;;;;;;;1.25;100.00;102195.09;4993061;28;20421;-44
2023/01/26 06:14:22;;;;;;;42.90;38.83;;;;;;;1.25;100.00;102202.97;4980615;28;20560;-46
2023/01/26 06:16:51;;;;;;;43.20;38.77;;;;;;;1.26;100.00;102197.59;4993063;28;20437;-43
2023/01/26 06:19:18;;;;;;;56.90;42.50;;;;;;;1.26;100.00;102209.91;4993223;28;20437;-45
2023/01/26 06:21:46;;;;;;;49.27;39.97;;;;;;;1.27;100.00;102201.09;4992844;28;20954;-43
2023/01/26 06:24:14;;;;;;;65.57;44.23;;;;;;;1.26;100.00;102212.53;4969790;28;20465;-46
2023/01/26 06:26:41;;;;;;;43.57;38.90;;;;;;;1.26;100.00;102208.13;4993408;28;20484;-44
2023/01/26 06:29:09;;;;;;;98.53;49.27;;;;;;;1.23;100.00;102207.47;4992794;28;20430;-44
2023/01/26 06:31:37;;;;;;;65.47;42.50;;;;;;;1.21;100.00;102204.97;4992415;28;20919;-43
2023/01/26 06:34:07;;;;;;;45.30;40.50;;;;;;;1.23;100.00;102203.06;4969528;28;20860;-48
2023/01/26 06:36:35;;;;;;;44.60;40.10;;;;;;;1.24;100.00;102203.91;4992536;28;20430;-44
2023/01/26 06:39:03;;;;;;;44.87;40.47;;;;;;;1.26;100.00;102208.13;4992656;28;20441;-49
2023/01/26 06:41:31;;;;;;;58.10;43.30;;;;;;;1.28;100.00;102210.66;4992389;28;20430;-44
2023/01/26 06:43:59;;;;;;;54.23;42.40;;;;;;;1.31;100.00;102205.19;4969494;28;20867;-45
2023/01/26 06:46:27;;;;;;;68.77;44.70;;;;;;;1.31;100.00;102206.06;4992487;28;20504;-47
2023/01/26 06:48:54;;;;;;;57.87;43.87;;;;;;;1.32;100.00;102206.88;4992669;28;20489;-49
2023/01/26 06:51:55;;;;;;;49.13;42.10;;;;;;;1.33;100.00;102205.94;4993051;28;20948;-48
2023/01/26 06:54:23;;;;;;;68.70;42.57;;;;;;;1.32;100.00;102209.50;4969533;28;20458;-52
2023/01/26 06:56:50;;;;;;;61.50;43.10;;;;;;;1.34;100.00;102213.72;4991679;28;20446;-47
2023/01/26 06:59:18;;;;;;;48.47;41.43;;;;;;;1.37;100.00;102212.69;4992394;28;20429;-45
2023/01/26 07:01:48;;;;;;;47.87;42.00;;;;;;;1.38;100.00;102209.94;4992799;28;20496;-46
2023/01/26 07:04:17;;;;;;;48.30;42.47;;;;;;;1.39;100.00;102216.88;4969593;28;20458;-50
2023/01/26 07:06:44;;;;;;;61.83;42.07;;;;;;;1.42;100.00;102223.72;4992026;28;20837;-47
2023/01/26 07:09:13;;;;;;;81.30;45.83;;;;;;;1.44;100.00;102224.44;4992160;28;20446;-49
2023/01/26 07:11:41;;;;;;;88.30;45.80;;;;;;;1.45;100.00;102231.41;4992027;28;20796;-47
2023/01/26 07:14:09;;;;;;;65.03;45.47;;;;;;;1.46;100.00;102222.59;4969004;28;20983;-49
2023/01/26 07:16:36;;;;;;;61.13;42.80;;;;;;;1.49;100.00;102225.00;4991349;28;20418;-44
2023/01/26 07:19:04;;;;;;;63.43;46.00;;;;;;;1.49;100.00;102220.56;4992542;28;20866;-47
2023/01/26 07:21:31;;;;;;;67.87;41.90;;;;;;;1.52;100.00;102204.59;4991827;28;20436;-45
2023/01/26 07:23:59;;;;;;;67.40;46.17;;;;;;;1.53;100.00;102208.91;4969215;28;20529;-44
2023/01/26 07:26:28;;;;;;;83.90;46.93;;;;;;;1.54;100.00;102210.63;4991649;28;20507;-45
2023/01/26 07:28:56;;;;;;;44.30;38.97;;;;;;;1.57;100.00;102210.41;4992424;28;20457;-45
2023/01/26 07:31:23;;;;;;;65.10;41.13;;;;;;;1.60;100.00;102214.63;4993000;28;20445;-45
2023/01/26 07:33:51;;;;;;;67.50;43.00;;;;;;;1.62;100.00;102215.34;4978918;28;20811;-44
2023/01/26 07:36:19;;;;;;;49.93;40.10;;;;;;;1.64;100.00;102219.53;4994955;28;20453;-47
2023/01/26 07:38:47;;;;;;;66.23;44.90;;;;;;;1.65;100.00;102210.72;4992769;28;20470;-44
2023/01/26 07:41:15;;;;;;;46.17;39.97;;;;;;;1.68;100.00;102228.94;4992129;28;20450;-46
2023/01/26 07:43:44;;;;;;;57.20;41.47;;;;;;;1.72;100.00;102228.72;4991492;28;20430;-46
2023/01/26 07:46:12;;;;;;;71.63;43.50;;;;;;;1.74;100.00;102224.19;4969265;28;20548;-44
2023/01/26 07:48:40;;;;;;;49.40;42.53;;;;;;;1.77;100.00;102226.59;4991460;28;20446;-44
2023/01/26 07:51:09;;;;;;;148.33;53.67;;;;;;;1.76;100.00;102230.22;4991682;28;20876;-48
2023/01/26 07:53:38;;;;;;;78.80;44.53;;;;;;;1.78;100.00;102223.91;4991636;28;20434;-44
2023/01/26 07:56:12;;;;;;;98.40;48.67;;;;;;;1.77;100.00;102223.97;4978127;28;20496;-47
2023/01/26 07:58:40;;;;;;;235.73;62.60;;;;;;;1.76;100.00;102230.22;4991198;28;20444;-44
2023/01/26 08:01:11;;;;;;;83.63;44.57;;;;;;;1.79;100.00;102236.09;4991440;28;20430;-44
2023/01/26 08:03:39;;;;;;;112.70;47.40;;;;;;;1.83;100.00;102231.47;4990928;28;20441;-46
2023/01/26 08:06:08;;;;;;;190.07;53.07;;;;;;;1.88;100.00;102235.47;4968740;28;20524;-45
2023/01/26 08:08:40;;;;;;;83.77;43.40;;;;;;;1.95;100.00;102230.63;4991419;28;20458;-44
2023/01/26 08:11:09;;;;;;;59.13;40.80;;;;;;;1.97;100.00;102231.38;4990632;28;20438;-45
2023/01/26 08:13:37;;;;;;;56.93;40.70;;;;;;;2.02;100.00;102237.16;4990831;28;20959;-46
2023/01/26 08:16:10;;;;;;;188.77;55.53;;;;;;;2.05;100.00;102242.22;4968407;28;20472;-47
2023/01/26 08:18:40;;;;;;;78.30;43.20;;;;;;;2.08;100.00;102242.84;4991586;28;20500;-44
2023/01/26 08:21:08;;;;;;;70.50;42.03;;;;;;;2.14;100.00;102241.59;4991369;28;20434;-45
2023/01/26 08:23:35;;;;;;;96.47;45.87;;;;;;;2.20;100.00;102241.16;4990780;28;20442;-44
2023/01/26 08:26:04;;;;;;;65.60;42.23;;;;;;;2.23;100.00;102226.00;4967880;28;20988;-46
2023/01/26 08:28:32;;;;;;;77.33;40.73;;;;;;;2.24;100.00;102225.03;4989698;28;20991;-48
2023/01/26 08:31:04;;;;;;;104.83;47.37;;;;;;;2.26;100.00;102240.75;4990833;28;20437;-44
2023/01/26 08:33:33;;;;;;;135.90;47.90;;;;;;;2.34;100.00;102232.28;4990537;28;20442;-44
2023/01/26 08:36:03;;;;;;;52.87;39.80;;;;;;;2.39;100.00;102231.00;4967946;28;20454;-45
2023/01/26 08:38:31;;;;;;;96.07;42.43;;;;;;;2.47;100.00;102235.75;4990689;28;20663;-44
2023/01/26 08:40:59;;;;;;;63.90;38.53;;;;;;;2.53;100.00;102237.97;4990202;28;20430;-47
2023/01/26 08:43:27;;;;;;;41.73;37.70;;;;;;;2.55;100.00;102241.31;4990039;28;20429;-44
2023/01/26 08:45:54;;;;;;;59.83;39.73;;;;;;;2.60;100.00;102249.72;4967435;28;20556;-50
2023/01/26 08:48:23;;;;;;;48.00;39.37;;;;;;;2.64;100.00;102238.03;4989919;28;20536;-49
2023/01/26 08:50:53;;;;;;;100.27;46.20;;;;;;;2.62;100.00;102240.78;4990028;28;20430;-45
2023/01/26 08:53:23;;;;;;;41.33;37.43;;;;;;;2.65;100.00;102245.00;4990799;28;20510;-45
2023/01/26 08:55:51;;;;;;;94.87;44.03;;;;;;;2.62;100.00;102250.47;4967123;28;20457;-46
2023/01/26 08:58:19;;;;;;;90.33;44.30;;;;;;;2.61;100.00;102254.06;4990452;28;20446;-44
2023/01/26 09:00:47;;;;;;;40.40;36.07;;;;;;;2.61;100.00;102257.53;4990049;28;20440;-44
2023/01/26 09:03:15;;;;;;;47.10;37.80;;;;;;;2.62;100.00;102256.59;4990339;28;20509;-44
2023/01/26 09:05:43;;;;;;;40.47;36.17;;;;;;;2.62;100.00;102259.22;4966546;28;20548;-45
2023/01/26 09:08:11;;;;;;;40.30;36.10;;;;;;;2.62;100.00;102261.00;4989926;28;20458;-46
2023/01/26 09:10:40;;;;;;;99.27;45.30;;;;;;;2.62;100.00;102261.88;4990173;28;20449;-44
2023/01/26 09:13:09;;;;;;;84.67;42.80;;;;;;;2.62;100.00;102261.00;4990215;28;20430;-44
2023/01/26 09:15:38;;;;;;;72.83;41.50;;;;;;;2.62;100.00;102253.13;4989733;28;20429;-48
2023/01/26 09:18:06;;;;;;;59.20;40.10;;;;;;;2.62;100.00;102256.59;4967462;28;20477;-46
2023/01/26 09:20:33;;;;;;;71.97;42.57;;;;;;;2.66;100.00;102270.34;4990061;28;20444;-48
2023/01/26 09:23:01;;;;;;;136.57;49.10;;;;;;;2.64;100.00;102264.38;4989627;28;20434;-44
2023/01/26 09:25:29;;;;;;;61.90;39.67;;;;;;;2.68;100.00;102261.44;4989696;28;20422;-47
2023/01/26 09:27:58;;;;;;;75.43;40.67;;;;;;;2.74;100.00;102261.00;4966704;28;20500;-51
2023/01/26 09:30:25;;;;;;;44.47;35.83;;;;;;;2.78;100.00;102267.69;4989984;28;20469;-49
2023/01/26 09:32:57;;;;;;;52.00;38.27;;;;;;;2.95;100.00;102263.03;4989829;28;20882;-47
2023/01/26 09:35:25;;;;;;;42.10;37.60;;;;;;;3.05;100.00;102272.78;4989409;28;20437;-50
2023/01/26 09:37:53;;;;;;;36.47;33.00;;;;;;;3.07;100.00;102276.19;4967518;28;20485;-50
2023/01/26 09:40:26;;;;;;;41.20;36.77;;;;;;;3.17;100.00;102268.41;4987706;28;20434;-48
2023/01/26 09:43:07;;;;;;;40.70;36.50;;;;;;;3.27;100.00;102265.00;4993559;28;20469;-48
2023/01/26 09:45:41;;;;;;;38.83;35.57;;;;;;;3.43;100.00;102267.38;4993012;28;20433;-47
2023/01/26 09:48:22;;;;;;;42.80;38.30;;;;;;;3.55;100.00;102260.34;4971425;28;20497;-51
2023/01/26 09:50:57;;;;;;;41.93;37.67;;;;;;;3.65;100.00;102270.06;4993457;28;20422;-46
2023/01/26 09:53:35;;;;;;;40.07;36.47;;;;;;;3.69;100.00;102276.81;4993267;28;20761;-44
2023/01/26 09:56:03;;;;;;;39.77;35.57;;;;;;;3.84;100.00;102280.09;4993153;28;20917;-44
2023/01/26 09:58:35;;;;;;;40.57;36.77;;;;;;;3.89;100.00;102278.78;4970627;28;20477;-46
2023/01/26 10:01:04;;;;;;;37.90;34.67;;;;;;;4.03;100.00;102271.63;4993239;28;20524;-44
2023/01/26 10:03:41;;;;;;;39.93;36.03;;;;;;;4.19;100.00;102282.69;4993483;28;20440;-47
2023/01/26 10:06:16;;;;;;;36.20;32.87;;;;;;;4.31;100.00;102273.81;4992817;28;20426;-44
2023/01/26 10:08:44;;;;;;;36.83;33.90;;;;;;;4.36;100.00;102266.41;4970346;28;20556;-49
2023/01/26 10:11:19;;;;;;;39.27;35.77;;;;;;;4.37;100.00;102260.13;4993283;28;20438;-46
2023/01/26 10:13:54;;;;;;;37.67;34.70;;;;;;;4.52;100.00;102258.09;4993528;28;20429;-44
2023/01/26 10:16:23;;;;;;;37.80;34.30;;;;;;;4.56;100.00;102260.38;4992665;28;20437;-44
2023/01/26 10:18:57;;;;;;;37.97;34.90;;;;;;;4.60;100.00;102253.88;4969926;28;21031;-49
2023/01/26 10:21:30;;;;;;;38.40;35.10;;;;;;;4.62;100.00;102259.06;4992854;28;20429;-45
2023/01/26 10:24:00;;;;;;;41.13;37.17;;;;;;;4.61;100.00;102260.00;4993336;28;20749;-47
2023/01/26 10:26:31;;;;;;;38.27;34.97;;;;;;;4.61;100.00;102249.44;4992705;28;20437;-45
2023/01/26 10:29:00;;;;;;;38.90;35.20;;;;;;;4.61;100.00;102252.94;4969838;28;20484;-49
2023/01/26 10:31:30;;;;;;;39.67;35.93;;;;;;;4.66;100.00;102248.13;4993229;28;20448;-45
2023/01/26 10:34:02;;;;;;;36.73;33.63;;;;;;;4.68;100.00;102250.66;4992659;28;20532;-44
2023/01/26 10:36:31;;;;;;;37.00;33.70;;;;;;;4.70;100.00;102254.00;4992552;28;20434;-48
2023/01/26 10:39:05;;;;;;;37.83;34.67;;;;;;;4.73;100.00;102236.09;4969622;28;20473;-45
2023/01/26 10:41:33;;;;;;;37.00;33.57;;;;;;;4.78;100.00;102236.56;5043214;23;21026;-48
2023/01/26 10:44:04;;;;;;;38.23;34.83;;;;;;;4.74;100.00;102232.50;5061331;28;20431;-46
2023/01/26 10:46:35;;;;;;;36.87;34.20;;;;;;;4.78;100.00;102233.91;5061663;28;20423;-47
2023/01/26 10:49:14;;;;;;;38.20;35.40;;;;;;;4.79;100.00;102232.97;5038053;28;20495;-45
2023/01/26 10:51:44;;;;;;;38.50;35.00;;;;;;;4.76;100.00;102233.22;5070482;28;20454;-47
2023/01/26 10:54:20;;;;;;;38.60;35.30;;;;;;;4.77;100.00;102234.06;5080484;28;20431;-45
2023/01/26 10:56:51;;;;;;;36.33;33.70;;;;;;;4.73;100.00;102240.53;5081644;28;20473;-45
2023/01/26 10:59:32;;;;;;;37.63;34.80;;;;;;;4.68;100.00;102243.56;5057110;28;20742;-48
2023/01/26 11:02:02;;;;;;;37.83;34.50;;;;;;;4.72;100.00;102244.97;5080694;28;20450;-48
2023/01/26 11:04:30;;;;;;;36.17;32.70;;;;;;;4.60;100.00;102238.03;5079781;28;20453;-47
2023/01/26 11:07:25;;;;;;;34.67;31.87;;;;;;;4.44;100.00;102246.34;5081751;28;20422;-45
2023/01/26 11:09:53;;;;;;;34.37;31.73;;;;;;;4.44;100.00;102246.34;5057750;28;20461;-49
2023/01/26 11:12:24;;;;;;;32.67;30.60;;;;;;;4.41;100.00;102243.09;5081012;28;20962;-47
2023/01/26 11:15:05;;;;;;;35.43;32.50;;;;;;;4.34;100.00;102240.09;5080153;28;20418;-50
2023/01/26 11:17:38;;;;;;;35.03;32.43;;;;;;;4.37;100.00;102233.72;5080004;28;20477;-47
2023/01/26 11:20:27;;;;;;;35.47;32.60;;;;;;;4.43;100.00;102241.16;5055940;28;20462;-45
2023/01/26 11:23:03;;;;;;;35.80;32.87;;;;;;;4.49;100.00;102243.31;5080912;28;20450;-46
2023/01/26 11:25:38;;;;;;;33.47;31.17;;;;;;;4.51;100.00;102244.03;5080447;28;20525;-54
2023/01/26 11:28:24;;;;;;;33.87;30.87;;;;;;;4.54;100.00;102245.63;5081785;28;20805;-51
2023/01/26 11:31:04;;;;;;;35.23;32.13;;;;;;;4.56;100.00;102238.41;5055889;28;20447;-47
2023/01/26 11:33:41;;;;;;;33.63;31.50;;;;;;;4.52;100.00;102231.69;5081562;28;20430;-51
2023/01/26 11:36:15;;;;;;;34.27;31.40;;;;;;;4.50;100.00;102226.53;5082212;28;20482;-52
2023/01/26 11:38:50;;;;;;;35.27;32.23;;;;;;;4.52;100.00;102234.31;5058614;28;20438;-54
2023/01/26 11:41:32;;;;;;;36.60;34.03;;;;;;;4.56;100.00;102228.69;5093465;28;20471;-54
2023/01/26 11:44:25;;;;;;;37.37;34.30;;;;;;;4.74;100.00;102229.88;5101679;28;20437;-48
2023/01/26 11:47:05;;;;;;;36.27;33.77;;;;;;;4.82;100.00;102221.31;5101977;28;20455;-47
2023/01/26 11:49:51;;;;;;;33.60;31.40;;;;;;;4.83;100.00;102215.91;5075727;28;20452;-49
2023/01/26 11:52:32;;;;;;;36.60;33.97;;;;;;;4.80;100.00;102212.66;5101661;28;20441;-49
2023/01/26 11:55:17;;;;;;;39.30;36.60;;;;;;;4.85;100.00;102207.84;5102074;28;20462;-52
2023/01/26 11:57:58;;;;;;;38.60;35.93;;;;;;;4.92;100.00;102196.66;5102219;28;20436;-51
2023/01/26 12:00:37;;;;;;;37.07;34.70;;;;;;;4.83;100.00;102204.50;5074930;28;20520;-52
2023/01/26 12:03:17;;;;;;;38.07;35.67;;;;;;;4.89;100.00;102204.00;5100848;28;20429;-49
2023/01/26 12:05:50;;;;;;;41.73;38.27;;;;;;;4.99;100.00;102196.97;5101663;28;20421;-46
2023/01/26 12:08:23;;;;;;;40.03;37.40;;;;;;;5.00;100.00;102196.88;5102470;28;20566;-53
2023/01/26 12:11:21;;;;;;;40.10;36.80;;;;;;;5.08;100.00;102196.22;5079943;28;20465;-51
2023/01/26 12:13:56;;;;;;;41.07;37.13;;;;;;;5.21;100.00;102198.72;5102008;28;20436;-51
2023/01/26 12:16:33;;;;;;;40.77;37.60;;;;;;;5.16;100.00;102193.81;5101244;28;20432;-47
2023/01/26 12:19:12;;;;;;;41.33;37.80;;;;;;;5.27;100.00;102203.50;5085632;28;20852;-49
2023/01/26 12:21:44;;;;;;;39.60;36.40;;;;;;;5.14;100.00;102202.84;5100910;28;20521;-50
2023/01/26 12:24:20;;;;;;;41.47;37.80;;;;;;;5.16;100.00;102211.50;5101085;28;20421;-52
2023/01/26 12:27:15;;;;;;;37.77;34.70;;;;;;;5.07;100.00;102207.78;5100578;28;20441;-51
2023/01/26 12:29:50;;;;;;;36.17;33.40;;;;;;;4.94;100.00;102201.81;5074206;28;20497;-52
2023/01/26 12:32:18;;;;;;;35.77;33.90;;;;;;;4.93;100.00;102200.97;5100126;28;20452;-54
2023/01/26 12:34:48;;;;;;;35.87;32.90;;;;;;;4.94;100.00;102186.81;5099469;28;20429;-50
2023/01/26 12:37:35;;;;;;;35.80;32.90;;;;;;;4.98;100.00;102188.25;5100581;28;20435;-49
2023/01/26 12:40:14;;;;;;;34.73;32.03;;;;;;;5.02;100.00;102183.50;5058156;28;20477;-49
2023/01/26 12:42:49;;;;;;;35.57;32.17;;;;;;;5.17;100.00;102181.44;5097036;28;20460;-54
2023/01/26 12:45:21;;;;;;;35.10;32.97;;;;;;;5.27;100.00;102180.53;5100293;28;20440;-47
2023/01/26 12:47:53;;;;;;;38.27;35.57;;;;;;;5.27;100.00;102179.69;5099289;28;20469;-49
2023/01/26 12:50:27;;;;;;;37.83;35.13;;;;;;;5.29;100.00;102181.25;5073123;28;20845;-44
2023/01/26 12:52:59;;;;;;;36.80;34.07;;;;;;;5.25;100.00;102177.19;5099260;28;21034;-49
2023/01/26 12:55:32;;;;;;;38.47;35.30;;;;;;;5.34;100.00;102171.13;5099762;28;20422;-45
2023/01/26 12:58:03;;;;;;;34.73;31.47;;;;;;;5.32;100.00;102174.84;5099371;28;20418;-47
2023/01/26 13:00:34;;;;;;;33.03;31.07;;;;;;;5.37;100.00;102177.97;5072567;28;20461;-48
2023/01/26 13:03:05;;;;;;;33.90;31.20;;;;;;;5.30;100.00;102187.38;5098947;28;20432;-45
2023/01/26 13:05:35;;;;;;;34.43;31.40;;;;;;;5.19;100.00;102184.78;5098710;28;20436;-47
2023/01/26 13:08:47;;;;;;;32.90;29.97;;;;;;;5.20;100.00;102171.44;5099054;28;20839;-47
2023/01/26 13:11:46;;;;;;;34.50;31.20;;;;;;;5.26;100.00;102170.91;5072788;28;20480;-46
2023/01/26 13:14:36;;;;;;;34.23;31.50;;;;;;;5.31;100.00;102178.50;5098679;28;20497;-50
2023/01/26 13:17:54;;;;;;;33.43;31.10;;;;;;;5.16;100.00;102183.25;5099602;28;20859;-50
2023/01/26 13:20:28;;;;;;;34.53;32.40;;;;;;;5.18;100.00;102177.81;5073832;28;20441;-46
2023/01/26 13:22:57;;;;;;;36.47;33.63;;;;;;;5.12;100.00;102183.59;5101264;28;20452;-49
2023/01/26 13:25:31;;;;;;;37.53;34.53;;;;;;;5.19;100.00;102187.44;5099314;28;20768;-50
2023/01/26 13:28:00;;;;;;;36.50;33.80;;;;;;;5.21;100.00;102186.34;5100408;28;20862;-51
2023/01/26 13:30:43;;;;;;;38.17;35.40;;;;;;;5.18;100.00;102183.09;5073275;28;20481;-48
2023/01/26 13:33:15;;;;;;;34.80;32.57;;;;;;;5.08;100.00;102184.84;5100439;28;20422;-49
2023/01/26 13:35:45;;;;;;;34.00;31.80;;;;;;;5.06;100.00;102190.25;5099101;28;20418;-50
2023/01/26 13:38:20;;;;;;;36.60;33.57;;;;;;;5.15;100.00;102193.94;5095065;28;20516;-53
2023/01/26 13:40:49;;;;;;;36.13;33.40;;;;;;;5.21;100.00;102196.06;5062901;28;20453;-44
2023/01/26 13:43:22;;;;;;;34.03;31.43;;;;;;;5.31;100.00;102204.94;5099741;28;20840;-51
2023/01/26 13:46:06;;;;;;;36.53;33.90;;;;;;;5.31;100.00;102197.00;5099998;28;20766;-45
2023/01/26 13:48:44;;;;;;;38.97;36.13;;;;;;;5.16;100.00;102195.63;5098383;28;20472;-50
2023/01/26 13:51:18;;;;;;;37.20;34.70;;;;;;;5.05;100.00;102201.78;5072522;28;20536;-51
2023/01/26 13:53:57;;;;;;;38.87;35.67;;;;;;;5.09;100.00;102210.31;5099105;28;20426;-48
2023/01/26 13:56:28;;;;;;;36.80;34.33;;;;;;;5.03;100.00;102203.72;5098959;28;20484;-52
2023/01/26 13:59:08;;;;;;;36.10;33.70;;;;;;;4.96;100.00;102208.66;5097978;28;20425;-47
2023/01/26 14:01:45;;;;;;;33.87;31.47;;;;;;;4.86;100.00;102220.09;5072849;28;20479;-48
2023/01/26 14:04:15;;;;;;;35.03;32.33;;;;;;;4.88;100.00;102224.31;5098683;28;20425;-50
2023/01/26 14:06:47;;;;;;;35.30;32.63;;;;;;;4.81;100.00;102209.88;5098788;28;20938;-51
2023/01/26 14:09:16;;;;;;;35.30;32.87;;;;;;;4.78;100.00;102217.25;5098285;28;20469;-50
2023/01/26 14:11:47;;;;;;;37.57;34.50;;;;;;;4.78;100.00;102220.72;5071517;28;20472;-46
2023/01/26 14:14:23;;;;;;;34.90;32.27;;;;;;;4.74;100.00;102213.16;5097751;28;20426;-46
2023/01/26 14:16:51;;;;;;;36.47;34.00;;;;;;;4.75;100.00;102222.78;5097686;28;20910;-47
2023/01/26 14:19:21;;;;;;;33.80;31.50;;;;;;;4.82;100.00;102223.94;5097663;28;20430;-48
2023/01/26 14:21:52;;;;;;;33.50;31.20;;;;;;;4.84;100.00;102211.44;5088803;28;20510;-49
2023/01/26 14:24:26;;;;;;;36.07;32.97;;;;;;;4.80;100.00;102218.81;5097664;28;21004;-47
2023/01/26 14:26:54;;;;;;;36.47;33.33;;;;;;;4.72;100.00;102223.84;5101042;28;20436;-49
2023/01/26 14:29:24;;;;;;;32.17;30.03;;;;;;;4.65;100.00;102213.91;5102670;28;20457;-55
2023/01/26 14:31:53;;;;;;;31.30;29.60;;;;;;;4.63;100.00;102210.56;5075451;28;20469;-53
2023/01/26 14:34:22;;;;;;;31.27;28.93;;;;;;;4.56;100.00;102207.56;5101572;28;20429;-49
2023/01/26 14:37:05;;;;;;;29.90;28.20;;;;;;;4.61;100.00;102209.81;5101875;28;20426;-48
2023/01/26 14:39:34;;;;;;;32.37;30.07;;;;;;;4.55;100.00;102205.00;5089743;28;20437;-50
2023/01/26 14:42:03;;;;;;;33.37;31.27;;;;;;;4.59;100.00;102209.09;5066946;28;20477;-49
2023/01/26 14:44:31;;;;;;;32.43;30.33;;;;;;;4.60;100.00;102208.16;5102830;28;20440;-50
2023/01/26 14:47:04;;;;;;;30.97;29.30;;;;;;;4.61;100.00;102201.88;5102453;28;20441;-47
2023/01/26 14:49:42;;;;;;;34.17;31.30;;;;;;;4.45;100.00;102211.03;5101963;28;20472;-48
2023/01/26 14:52:24;;;;;;;32.93;30.97;;;;;;;4.33;100.00;102214.63;5075350;28;20508;-48
2023/01/26 14:54:55;;;;;;;34.47;32.10;;;;;;;4.28;100.00;102211.53;5102676;28;20417;-48
2023/01/26 14:57:25;;;;;;;32.00;30.00;;;;;;;4.21;100.00;102207.66;5102954;28;20848;-50
2023/01/26 14:59:55;;;;;;;30.90;28.87;;;;;;;4.25;100.00;102213.56;5103132;28;20818;-52
2023/01/26 15:02:24;;;;;;;32.23;30.00;;;;;;;4.25;100.00;102218.84;5075850;28;20480;-45
2023/01/26 15:04:58;;;;;;;33.00;30.30;;;;;;;4.18;100.00;102231.66;5102109;28;20429;-50
2023/01/26 15:07:34;;;;;;;32.77;30.10;;;;;;;4.19;100.00;102238.66;5102031;28;20429;-50
2023/01/26 15:10:20;;;;;;;31.17;29.40;;;;;;;4.14;100.00;102232.03;5102762;28;20469;-50
2023/01/26 15:12:56;;;;;;;31.27;29.30;;;;;;;4.14;100.00;102243.44;5087382;28;20465;-54
2023/01/26 15:15:28;;;;;;;35.20;33.03;;;;;;;4.12;100.00;102240.06;5102117;28;20425;-48
2023/01/26 15:18:05;;;;;;;32.07;30.23;;;;;;;4.09;100.00;102250.84;5078143;28;20454;-53
2023/01/26 15:20:44;;;;;;;34.20;31.87;;;;;;;4.06;100.00;102256.38;5045994;28;20492;-51
2023/01/26 15:23:22;;;;;;;35.93;33.10;;;;;;;4.00;100.00;102261.31;5084276;28;20426;-51
2023/01/26 15:25:52;;;;;;;31.53;29.67;;;;;;;3.92;100.00;102261.88;5084173;28;20436;-49
2023/01/26 15:28:24;;;;;;;32.67;29.97;;;;;;;3.82;100.00;102261.72;5084627;28;20453;-50
2023/01/26 15:30:55;;;;;;;34.63;32.30;;;;;;;3.75;100.00;102271.09;5083828;28;20542;-51
2023/01/26 15:33:46;;;;;;;34.10;31.63;;;;;;;3.61;100.00;102263.38;5084116;28;20426;-52
2023/01/26 15:36:29;;;;;;;33.30;31.17;;;;;;;3.58;100.00;102260.97;5083944;28;20862;-51
2023/01/26 15:38:59;;;;;;;33.80;31.90;;;;;;;3.54;100.00;102261.28;5080157;28;20431;-50
2023/01/26 15:41:30;;;;;;;35.80;33.40;;;;;;;3.49;100.00;102259.00;5094891;28;20607;-49
2023/01/26 15:43:58;;;;;;;37.93;35.13;;;;;;;3.46;100.00;102272.41;5103569;28;20452;-45
2023/01/26 15:46:26;;;;;;;39.20;36.47;;;;;;;3.43;100.00;102269.16;5104018;28;20457;-52
2023/01/26 15:48:54;;;;;;;39.23;36.40;;;;;;;3.39;100.00;102278.25;5104111;28;20926;-52
2023/01/26 15:51:22;;;;;;;52.53;48.37;;;;;;;3.33;100.00;102279.53;5103964;28;20480;-51
2023/01/26 15:53:50;;;;;;;44.40;41.30;;;;;;;3.28;100.00;102277.25;5103474;28;20430;-49
2023/01/26 15:56:17;;;;;;;41.37;38.10;;;;;;;3.26;100.00;102276.50;5103590;28;20845;-47
2023/01/26 15:58:46;;;;;;;37.70;34.93;;;;;;;3.24;100.00;102274.94;5103297;28;20433;-49
2023/01/26 16:01:20;;;;;;;39.40;36.60;;;;;;;3.25;100.00;102271.34;5092516;28;20500;-50
2023/01/26 16:03:48;;;;;;;39.07;36.40;;;;;;;3.26;100.00;102280.94;5104764;28;20988;-49
2023/01/26 16:06:21;;;;;;;36.97;33.37;;;;;;;3.29;100.00;102301.78;5103915;28;20757;-48
2023/01/26 16:08:49;;;;;;;38.50;35.80;;;;;;;3.33;100.00;102298.00;5103952;28;20449;-52
2023/01/26 16:11:17;;;;;;;37.97;35.37;;;;;;;3.34;100.00;102294.41;5103557;28;20497;-50
2023/01/26 16:13:47;;;;;;;40.47;37.33;;;;;;;3.38;100.00;102301.13;5103181;28;20434;-49
2023/01/26 16:16:30;;;;;;;39.37;36.10;;;;;;;3.42;100.00;102305.22;5103386;28;20967;-52
2023/01/26 16:18:57;;;;;;;38.30;35.37;;;;;;;3.48;100.00;102312.69;5103788;28;20425;-49
2023/01/26 16:21:29;;;;;;;37.47;34.53;;;;;;;3.48;100.00;102320.59;5103147;28;20548;-54